Terminal Aerodrome Forecast
Issued by NWS

Home | Current Version | Previous Version | Text Only | Print | Product List | Glossary On
Versions: 1 2 3 4 5 6 7 8 9 10 11 12 13 14 15 16 17 18 19 20 21 22 23 24
000
FTUS44 KOUN 271720
TAFGAG
TAF
KGAG 271720Z 2718/2818 23008KT P6SM SKC
     FM272000 22012G17KT P6SM SKC
     FM272300 21011KT P6SM SKC=

USA.gov is the U.S. government's official web portal to all federal, state and local government web resources and services.